Holly Ann — WDE9094 — position and weather

sailwx.info

Track history (hours):
 
Tides and Currents Weather Stations Pressure Air Temp Water Temp Dewpoint Dewpoint Depression Visibility Wind Speed Wind Dir Waves Ship Positions

Holly Ann

Owner: Manke Tug and Barge Co., Inc., Shelton, WA. More information available from US FCC via Universal Licensing System and Coast Guard Vessel Documentation Center.

Last reported at 2014-Nov-23 05:33 UTC. Time now 2014-Nov-23 05:58 UTC.
Position N 47°16' W 122°33'.

; draft 4.5 m.

Type: Towing. MMSI: 367413350.

Date/timePositionNaut miles runAvg speedWind from/ knotsBaromVisibWave heightAir tempDewpointWater temp
2014-Nov-23 05:33N 47°16' W 122°33'4 4.4
2014-Nov-23 04:33N 47°20' W 122°32'7 7.0
2014-Nov-23 03:33N 47°27' W 122°31'5 7.4
2014-Nov-23 02:56N 47°31' W 122°29'3 7.7
2014-Nov-23 02:33N 47°34' W 122°26'0 6.9
2014-Nov-23 02:32N 47°34' W 122°26'4 4.4
2014-Nov-23 01:33N 47°33' W 122°20'0 0.1
2014-Nov-23 01:27N 47°33' W 122°20'0 0.0
2014-Nov-23 00:32N 47°33' W 122°20'0 0.0
2014-Nov-23 00:32N 47°33' W 122°20'0 0.0
2014-Nov-22 23:33N 47°33' W 122°20'0 0.0
2014-Nov-22 23:31N 47°33' W 122°20'0 0.0
2014-Nov-22 22:33N 47°33' W 122°20'0 0.0
2014-Nov-22 22:31N 47°33' W 122°20'0 0.0
2014-Nov-22 21:29N 47°33' W 122°20'0 0.0
2014-Nov-22 21:26N 47°33' W 122°20'0 0.0
2014-Nov-22 20:32N 47°33' W 122°20'0 0.0
2014-Nov-22 20:26N 47°33' W 122°20'0 0.0
2014-Nov-22 19:33N 47°33' W 122°20'0 0.0
2014-Nov-22 19:16N 47°33' W 122°20'0 0.0
2014-Nov-22 18:31N 47°33' W 122°20'0 0.0
2014-Nov-22 18:31N 47°33' W 122°20'0 0.0
2014-Nov-22 17:32N 47°33' W 122°20'0 0.0
2014-Nov-22 17:15N 47°33' W 122°20'0 0.0
2014-Nov-22 16:33N 47°33' W 122°20'0 0.0
2014-Nov-22 16:30N 47°33' W 122°20'0 0.0
2014-Nov-22 15:33N 47°33' W 122°20'0 0.0
2014-Nov-22 15:31N 47°33' W 122°20'0 0.0
2014-Nov-22 14:33N 47°33' W 122°20'0 0.0
2014-Nov-22 14:30N 47°33' W 122°20'0 0.0
2014-Nov-22 13:33N 47°33' W 122°20'0 0.0
2014-Nov-22 12:58N 47°33' W 122°20'0 0.0
2014-Nov-22 12:33N 47°33' W 122°20'0 0.0
2014-Nov-22 11:31N 47°33' W 122°20'1 1.1
2014-Nov-22 10:59N 47°33' W 122°21'0 0.5
2014-Nov-22 09:57N 47°34' W 122°21'0 0.0
2014-Nov-22 09:10N 47°34' W 122°21'1 2.3
2014-Nov-22 08:33N 47°35' W 122°22'3 2.6
2014-Nov-22 07:33N 47°35' W 122°25'2 3.6
2014-Nov-22 06:57N 47°33' W 122°25'2 3.9
2014-Nov-22 06:33N 47°31' W 122°25'0 2.9
2014-Nov-22 06:32N 47°31' W 122°25'4 4.6
2014-Nov-22 05:33N 47°27' W 122°23'5 4.6
2014-Nov-22 04:33N 47°23' W 122°21'6 5.7
2014-Nov-22 03:33N 47°19' W 122°28'1 6.7
2014-Nov-22 03:26N 47°19' W 122°29'5 5.7
2014-Nov-22 02:33N 47°15' W 122°34'15 6.0
2014-Nov-22 00:07N 47°10' W 122°54'12 0.5
2014-Nov-21 01:29N 47°13' W 122°37'5 5.8
2014-Nov-21 00:33N 47°17' W 122°33'7 6.6
2014-Nov-20 23:33N 47°24' W 122°32'7 7.6
2014-Nov-20 22:36N 47°31' W 122°29'0 7.9
2014-Nov-20 22:33N 47°31' W 122°29'2 7.6
2014-Nov-20 22:16N 47°33' W 122°28'5 6.4
2014-Nov-20 21:33N 47°35' W 122°22'0 7.2
2014-Nov-20 21:30N 47°35' W 122°22'1 1.2
2014-Nov-20 20:33N 47°34' W 122°21'0 0.0
2014-Nov-20 20:31N 47°34' W 122°21'0 0.0
2014-Nov-20 19:33N 47°34' W 122°21'0 0.0
2014-Nov-20 19:31N 47°34' W 122°21'0 0.0
2014-Nov-20 18:33N 47°34' W 122°21'0 0.0
2014-Nov-20 18:30N 47°34' W 122°21'0 0.0
2014-Nov-20 17:33N 47°34' W 122°21'0 0.0
2014-Nov-20 17:26N 47°34' W 122°21'0 0.0
2014-Nov-20 16:33N 47°34' W 122°21'0 0.0
2014-Nov-20 16:30N 47°34' W 122°21'0 0.0
2014-Nov-20 15:33N 47°34' W 122°21'0 0.0
2014-Nov-20 15:30N 47°34' W 122°21'0 0.0
2014-Nov-20 14:33N 47°34' W 122°21'0 0.0
2014-Nov-20 14:30N 47°34' W 122°21'0 0.0
2014-Nov-20 13:33N 47°34' W 122°21'0 0.1
2014-Nov-20 13:30N 47°34' W 122°21'0 0.0
2014-Nov-20 12:33N 47°34' W 122°21'0 0.0
2014-Nov-20 12:30N 47°34' W 122°21'0 0.0
2014-Nov-20 11:33N 47°34' W 122°21'0 0.0
2014-Nov-20 11:29N 47°34' W 122°21'0 0.0
2014-Nov-20 10:33N 47°34' W 122°21'0 0.0
2014-Nov-20 10:29N 47°34' W 122°21'0 0.0
2014-Nov-20 09:33N 47°34' W 122°21'0 0.0
2014-Nov-20 09:29N 47°34' W 122°21'0 0.0
2014-Nov-20 08:33N 47°34' W 122°21'0 0.0
2014-Nov-20 08:28N 47°34' W 122°21'0 0.1
2014-Nov-20 07:49N 47°34' W 122°21'1 2.4
2014-Nov-20 07:28N 47°35' W 122°22'3 3.4
2014-Nov-20 06:33N 47°33' W 122°25'1 6.6
2014-Nov-20 06:28N 47°32' W 122°25'6 6.4
2014-Nov-20 05:33N 47°27' W 122°23'6 5.6
2014-Nov-20 04:33N 47°21' W 122°23'5 5.3
2014-Nov-20 03:33N 47°19' W 122°30'6 6.1
2014-Nov-20 02:33N 47°14' W 122°35'13 5.5
2014-Nov-20 00:09N 47°10' W 122°53'5 0.3
2014-Nov-19 10:06N 47°10' W 122°46'5 7.7
2014-Nov-19 09:30N 47°11' W 122°39'9 9.4
2014-Nov-19 08:33N 47°19' W 122°34'6 8.4
2014-Nov-19 07:53N 47°25' W 122°32'3 8.8
2014-Nov-19 07:33N 47°28' W 122°31'2 8.5
2014-Nov-19 07:19N 47°30' W 122°30'3 9.0
2014-Nov-19 06:58N 47°32' W 122°28'4 8.8
2014-Nov-19 06:33N 47°35' W 122°25'3 3.4
2014-Nov-19 05:33N 47°33' W 122°21'0 0.0
2014-Nov-19 05:33N 47°33' W 122°21'0 0.0
2014-Nov-19 04:31N 47°33' W 122°21'0 0.0
2014-Nov-19 04:28N 47°33' W 122°21'0 0.0
2014-Nov-19 03:31N 47°33' W 122°21'0 0.0
2014-Nov-19 03:23N 47°33' W 122°21'0 0.0
2014-Nov-19 02:32N 47°33' W 122°21'0 0.0
2014-Nov-19 02:32N 47°33' W 122°21'0 0.0
2014-Nov-19 01:33N 47°33' W 122°21'0 0.0
2014-Nov-19 01:33N 47°33' W 122°21'0 0.0
2014-Nov-19 00:33N 47°33' W 122°21'0 0.0
2014-Nov-19 00:32N 47°33' W 122°21'0 0.0
2014-Nov-18 23:33N 47°33' W 122°21'0 0.0
2014-Nov-18 23:27N 47°33' W 122°21'0 0.0
2014-Nov-18 22:33N 47°33' W 122°21'0 0.0
2014-Nov-18 22:33N 47°33' W 122°21'0 0.0
2014-Nov-18 21:33N 47°33' W 122°21'0 0.0
2014-Nov-18 21:33N 47°33' W 122°21'0 0.0
2014-Nov-18 20:33N 47°33' W 122°21'0 0.0
2014-Nov-18 20:28N 47°33' W 122°21'0 0.0
2014-Nov-18 19:28N 47°33' W 122°21'0 0.0
2014-Nov-18 19:27N 47°33' W 122°21'0 0.0
2014-Nov-18 18:32N 47°33' W 122°21'0 0.3
2014-Nov-18 18:21N 47°33' W 122°21'0 0.6
2014-Nov-18 17:33N 47°34' W 122°21'0 0.8
2014-Nov-18 17:26N 47°34' W 122°21'3 3.8
2014-Nov-18 16:33N 47°35' W 122°25'1 6.7
2014-Nov-18 16:26N 47°34' W 122°26'6 6.8
2014-Nov-18 15:33N 47°29' W 122°30'0 6.5
2014-Nov-18 15:30N 47°29' W 122°30'7 7.2
2014-Nov-18 14:33N 47°22' W 122°32'8 8.2
2014-Nov-18 13:33N 47°14' W 122°35'9 7.0
2014-Nov-18 12:19N 47°10' W 122°46'5 6.6
2014-Nov-18 11:29N 47°10' W 122°54'  
2014-Nov-15 02:31N 47°13' W 122°37'7 7.6
2014-Nov-15 01:34N 47°19' W 122°33'8 7.9
2014-Nov-15 00:34N 47°27' W 122°31'1 7.9
2014-Nov-15 00:24N 47°28' W 122°31'7 8.5
2014-Nov-14 23:33N 47°35' W 122°26'1 8.4
2014-Nov-14 23:29N 47°35' W 122°25'3 3.0
2014-Nov-14 22:33N 47°34' W 122°21'0 0.0
2014-Nov-14 22:29N 47°34' W 122°21'0 0.0
2014-Nov-14 21:34N 47°34' W 122°21'0 0.0
2014-Nov-14 21:29N 47°34' W 122°21'0 0.0
2014-Nov-14 20:34N 47°34' W 122°21'0 0.0
2014-Nov-14 20:29N 47°34' W 122°21'0 0.0
2014-Nov-14 19:34N 47°34' W 122°21'0 0.0
2014-Nov-14 19:29N 47°34' W 122°21'0 0.0
2014-Nov-14 18:33N 47°34' W 122°21'0 0.0
2014-Nov-14 18:29N 47°34' W 122°21'0 0.0
2014-Nov-14 17:33N 47°34' W 122°21'0 0.0
2014-Nov-14 17:29N 47°34' W 122°21'0 0.0
2014-Nov-14 16:33N 47°34' W 122°21'0 0.0
2014-Nov-14 16:29N 47°34' W 122°21'0 0.0
2014-Nov-14 15:33N 47°34' W 122°21'0 0.0
2014-Nov-14 15:29N 47°34' W 122°21'0 0.0
2014-Nov-14 14:34N 47°34' W 122°21'0 0.0
2014-Nov-14 14:33N 47°34' W 122°21'0 0.0
2014-Nov-14 13:28N 47°34' W 122°21'1 0.9
2014-Nov-14 12:34N 47°33' W 122°21'0 0.0
2014-Nov-14 12:33N 47°33' W 122°21'0 0.0
2014-Nov-14 11:34N 47°33' W 122°21'0 0.0
2014-Nov-14 11:33N 47°33' W 122°21'0 0.0
2014-Nov-14 10:34N 47°33' W 122°21'0 0.0
2014-Nov-14 10:33N 47°33' W 122°21'0 0.0
2014-Nov-14 09:34N 47°33' W 122°21'0 0.0
2014-Nov-14 09:05N 47°33' W 122°21'0 0.0
2014-Nov-14 08:34N 47°33' W 122°21'0 0.0
2014-Nov-14 08:19N 47°33' W 122°21'0 0.0
2014-Nov-14 07:34N 47°33' W 122°21'0 0.0
2014-Nov-14 06:46N 47°33' W 122°21'0 0.0
2014-Nov-14 06:34N 47°33' W 122°21'0 0.0
2014-Nov-14 06:31N 47°33' W 122°21'0 0.0
2014-Nov-14 05:34N 47°33' W 122°21'0 0.0
2014-Nov-14 05:31N 47°33' W 122°21'0 0.0
2014-Nov-14 04:34N 47°33' W 122°21'0 0.0
2014-Nov-14 04:31N 47°33' W 122°21'0 0.0
2014-Nov-14 03:34N 47°33' W 122°21'0 0.0
2014-Nov-14 03:31N 47°33' W 122°21'0 0.0
2014-Nov-14 02:34N 47°33' W 122°21'0 0.0
2014-Nov-14 02:31N 47°33' W 122°21'0 0.1
2014-Nov-14 01:34N 47°33' W 122°21'0 1.0
2014-Nov-14 01:31N 47°33' W 122°21'3 3.4
2014-Nov-14 00:33N 47°36' W 122°24'0 6.2
2014-Nov-14 00:30N 47°35' W 122°24'7 7.2
2014-Nov-13 23:33N 47°30' W 122°30'1 7.1
2014-Nov-13 23:25N 47°29' W 122°30'7 7.8
2014-Nov-13 22:34N 47°22' W 122°32'8 8.4
2014-Nov-13 21:34N 47°14' W 122°35'9 7.1
2014-Nov-13 20:19N 47°10' W 122°46'  
Track history (hours):
 
Tides and Currents Weather Stations Pressure Air Temp Water Temp Dewpoint Dewpoint Depression Visibility Wind Speed Wind Dir Waves Ship Positions

Holly Ann

Owner: Manke Tug and Barge Co., Inc., Shelton, WA. More information available from US FCC via Universal Licensing System and Coast Guard Vessel Documentation Center.

Last reported at 2014-Nov-23 05:33 UTC. Time now 2014-Nov-23 05:58 UTC.
Position N 47°16' W 122°33'.

; draft 4.5 m.

Type: Towing. MMSI: 367413350.

Date/timePositionNaut miles runAvg speedWind from/ knotsBaromVisibWave heightAir tempDewpointWater temp
2014-Nov-23 05:33N 47°16' W 122°33'4 4.4
2014-Nov-23 04:33N 47°20' W 122°32'7 7.0
2014-Nov-23 03:33N 47°27' W 122°31'5 7.4
2014-Nov-23 02:56N 47°31' W 122°29'3 7.7
2014-Nov-23 02:33N 47°34' W 122°26'0 6.9
2014-Nov-23 02:32N 47°34' W 122°26'4 4.4
2014-Nov-23 01:33N 47°33' W 122°20'0 0.1
2014-Nov-23 01:27N 47°33' W 122°20'0 0.0
2014-Nov-23 00:32N 47°33' W 122°20'0 0.0
2014-Nov-23 00:32N 47°33' W 122°20'0 0.0
2014-Nov-22 23:33N 47°33' W 122°20'0 0.0
2014-Nov-22 23:31N 47°33' W 122°20'0 0.0
2014-Nov-22 22:33N 47°33' W 122°20'0 0.0
2014-Nov-22 22:31N 47°33' W 122°20'0 0.0
2014-Nov-22 21:29N 47°33' W 122°20'0 0.0
2014-Nov-22 21:26N 47°33' W 122°20'0 0.0
2014-Nov-22 20:32N 47°33' W 122°20'0 0.0
2014-Nov-22 20:26N 47°33' W 122°20'0 0.0
2014-Nov-22 19:33N 47°33' W 122°20'0 0.0
2014-Nov-22 19:16N 47°33' W 122°20'0 0.0
2014-Nov-22 18:31N 47°33' W 122°20'0 0.0
2014-Nov-22 18:31N 47°33' W 122°20'0 0.0
2014-Nov-22 17:32N 47°33' W 122°20'0 0.0
2014-Nov-22 17:15N 47°33' W 122°20'0 0.0
2014-Nov-22 16:33N 47°33' W 122°20'0 0.0
2014-Nov-22 16:30N 47°33' W 122°20'0 0.0
2014-Nov-22 15:33N 47°33' W 122°20'0 0.0
2014-Nov-22 15:31N 47°33' W 122°20'0 0.0
2014-Nov-22 14:33N 47°33' W 122°20'0 0.0
2014-Nov-22 14:30N 47°33' W 122°20'0 0.0
2014-Nov-22 13:33N 47°33' W 122°20'0 0.0
2014-Nov-22 12:58N 47°33' W 122°20'0 0.0
2014-Nov-22 12:33N 47°33' W 122°20'0 0.0
2014-Nov-22 11:31N 47°33' W 122°20'1 1.1
2014-Nov-22 10:59N 47°33' W 122°21'0 0.5
2014-Nov-22 09:57N 47°34' W 122°21'0 0.0
2014-Nov-22 09:10N 47°34' W 122°21'1 2.3
2014-Nov-22 08:33N 47°35' W 122°22'3 2.6
2014-Nov-22 07:33N 47°35' W 122°25'2 3.6
2014-Nov-22 06:57N 47°33' W 122°25'2 3.9
2014-Nov-22 06:33N 47°31' W 122°25'0 2.9
2014-Nov-22 06:32N 47°31' W 122°25'4 4.6
2014-Nov-22 05:33N 47°27' W 122°23'5 4.6
2014-Nov-22 04:33N 47°23' W 122°21'6 5.7
2014-Nov-22 03:33N 47°19' W 122°28'1 6.7
2014-Nov-22 03:26N 47°19' W 122°29'5 5.7
2014-Nov-22 02:33N 47°15' W 122°34'15 6.0
2014-Nov-22 00:07N 47°10' W 122°54'12 0.5
2014-Nov-21 01:29N 47°13' W 122°37'5 5.8
2014-Nov-21 00:33N 47°17' W 122°33'7 6.6
2014-Nov-20 23:33N 47°24' W 122°32'7 7.6
2014-Nov-20 22:36N 47°31' W 122°29'0 7.9
2014-Nov-20 22:33N 47°31' W 122°29'2 7.6
2014-Nov-20 22:16N 47°33' W 122°28'5 6.4
2014-Nov-20 21:33N 47°35' W 122°22'0 7.2
2014-Nov-20 21:30N 47°35' W 122°22'1 1.2
2014-Nov-20 20:33N 47°34' W 122°21'0 0.0
2014-Nov-20 20:31N 47°34' W 122°21'0 0.0
2014-Nov-20 19:33N 47°34' W 122°21'0 0.0
2014-Nov-20 19:31N 47°34' W 122°21'0 0.0
2014-Nov-20 18:33N 47°34' W 122°21'0 0.0
2014-Nov-20 18:30N 47°34' W 122°21'0 0.0
2014-Nov-20 17:33N 47°34' W 122°21'0 0.0
2014-Nov-20 17:26N 47°34' W 122°21'0 0.0
2014-Nov-20 16:33N 47°34' W 122°21'0 0.0
2014-Nov-20 16:30N 47°34' W 122°21'0 0.0
2014-Nov-20 15:33N 47°34' W 122°21'0 0.0
2014-Nov-20 15:30N 47°34' W 122°21'0 0.0
2014-Nov-20 14:33N 47°34' W 122°21'0 0.0
2014-Nov-20 14:30N 47°34' W 122°21'0 0.0
2014-Nov-20 13:33N 47°34' W 122°21'0 0.1
2014-Nov-20 13:30N 47°34' W 122°21'0 0.0
2014-Nov-20 12:33N 47°34' W 122°21'0 0.0
2014-Nov-20 12:30N 47°34' W 122°21'0 0.0
2014-Nov-20 11:33N 47°34' W 122°21'0 0.0
2014-Nov-20 11:29N 47°34' W 122°21'0 0.0
2014-Nov-20 10:33N 47°34' W 122°21'0 0.0
2014-Nov-20 10:29N 47°34' W 122°21'0 0.0
2014-Nov-20 09:33N 47°34' W 122°21'0 0.0
2014-Nov-20 09:29N 47°34' W 122°21'0 0.0
2014-Nov-20 08:33N 47°34' W 122°21'0 0.0
2014-Nov-20 08:28N 47°34' W 122°21'0 0.1
2014-Nov-20 07:49N 47°34' W 122°21'1 2.4
2014-Nov-20 07:28N 47°35' W 122°22'3 3.4
2014-Nov-20 06:33N 47°33' W 122°25'1 6.6
2014-Nov-20 06:28N 47°32' W 122°25'6 6.4
2014-Nov-20 05:33N 47°27' W 122°23'6 5.6
2014-Nov-20 04:33N 47°21' W 122°23'5 5.3
2014-Nov-20 03:33N 47°19' W 122°30'6 6.1
2014-Nov-20 02:33N 47°14' W 122°35'13 5.5
2014-Nov-20 00:09N 47°10' W 122°53'5 0.3
2014-Nov-19 10:06N 47°10' W 122°46'5 7.7
2014-Nov-19 09:30N 47°11' W 122°39'9 9.4
2014-Nov-19 08:33N 47°19' W 122°34'6 8.4
2014-Nov-19 07:53N 47°25' W 122°32'3 8.8
2014-Nov-19 07:33N 47°28' W 122°31'2 8.5
2014-Nov-19 07:19N 47°30' W 122°30'3 9.0
2014-Nov-19 06:58N 47°32' W 122°28'4 8.8
2014-Nov-19 06:33N 47°35' W 122°25'3 3.4
2014-Nov-19 05:33N 47°33' W 122°21'0 0.0
2014-Nov-19 05:33N 47°33' W 122°21'0 0.0
2014-Nov-19 04:31N 47°33' W 122°21'0 0.0
2014-Nov-19 04:28N 47°33' W 122°21'0 0.0
2014-Nov-19 03:31N 47°33' W 122°21'0 0.0
2014-Nov-19 03:23N 47°33' W 122°21'0 0.0
2014-Nov-19 02:32N 47°33' W 122°21'0 0.0
2014-Nov-19 02:32N 47°33' W 122°21'0 0.0
2014-Nov-19 01:33N 47°33' W 122°21'0 0.0
2014-Nov-19 01:33N 47°33' W 122°21'0 0.0
2014-Nov-19 00:33N 47°33' W 122°21'0 0.0
2014-Nov-19 00:32N 47°33' W 122°21'0 0.0
2014-Nov-18 23:33N 47°33' W 122°21'0 0.0
2014-Nov-18 23:27N 47°33' W 122°21'0 0.0
2014-Nov-18 22:33N 47°33' W 122°21'0 0.0
2014-Nov-18 22:33N 47°33' W 122°21'0 0.0
2014-Nov-18 21:33N 47°33' W 122°21'0 0.0
2014-Nov-18 21:33N 47°33' W 122°21'0 0.0
2014-Nov-18 20:33N 47°33' W 122°21'0 0.0
2014-Nov-18 20:28N 47°33' W 122°21'0 0.0
2014-Nov-18 19:28N 47°33' W 122°21'0 0.0
2014-Nov-18 19:27N 47°33' W 122°21'0 0.0
2014-Nov-18 18:32N 47°33' W 122°21'0 0.3
2014-Nov-18 18:21N 47°33' W 122°21'0 0.6
2014-Nov-18 17:33N 47°34' W 122°21'0 0.8
2014-Nov-18 17:26N 47°34' W 122°21'3 3.8
2014-Nov-18 16:33N 47°35' W 122°25'1 6.7
2014-Nov-18 16:26N 47°34' W 122°26'6 6.8
2014-Nov-18 15:33N 47°29' W 122°30'0 6.5
2014-Nov-18 15:30N 47°29' W 122°30'7 7.2
2014-Nov-18 14:33N 47°22' W 122°32'8 8.2
2014-Nov-18 13:33N 47°14' W 122°35'9 7.0
2014-Nov-18 12:19N 47°10' W 122°46'5 6.6
2014-Nov-18 11:29N 47°10' W 122°54'  
2014-Nov-15 02:31N 47°13' W 122°37'7 7.6
2014-Nov-15 01:34N 47°19' W 122°33'8 7.9
2014-Nov-15 00:34N 47°27' W 122°31'1 7.9
2014-Nov-15 00:24N 47°28' W 122°31'7 8.5
2014-Nov-14 23:33N 47°35' W 122°26'1 8.4
2014-Nov-14 23:29N 47°35' W 122°25'3 3.0
2014-Nov-14 22:33N 47°34' W 122°21'0 0.0
2014-Nov-14 22:29N 47°34' W 122°21'0 0.0
2014-Nov-14 21:34N 47°34' W 122°21'0 0.0
2014-Nov-14 21:29N 47°34' W 122°21'0 0.0
2014-Nov-14 20:34N 47°34' W 122°21'0 0.0
2014-Nov-14 20:29N 47°34' W 122°21'0 0.0
2014-Nov-14 19:34N 47°34' W 122°21'0 0.0
2014-Nov-14 19:29N 47°34' W 122°21'0 0.0
2014-Nov-14 18:33N 47°34' W 122°21'0 0.0
2014-Nov-14 18:29N 47°34' W 122°21'0 0.0
2014-Nov-14 17:33N 47°34' W 122°21'0 0.0
2014-Nov-14 17:29N 47°34' W 122°21'0 0.0
2014-Nov-14 16:33N 47°34' W 122°21'0 0.0
2014-Nov-14 16:29N 47°34' W 122°21'0 0.0
2014-Nov-14 15:33N 47°34' W 122°21'0 0.0
2014-Nov-14 15:29N 47°34' W 122°21'0 0.0
2014-Nov-14 14:34N 47°34' W 122°21'0 0.0
2014-Nov-14 14:33N 47°34' W 122°21'0 0.0
2014-Nov-14 13:28N 47°34' W 122°21'1 0.9
2014-Nov-14 12:34N 47°33' W 122°21'0 0.0
2014-Nov-14 12:33N 47°33' W 122°21'0 0.0
2014-Nov-14 11:34N 47°33' W 122°21'0 0.0
2014-Nov-14 11:33N 47°33' W 122°21'0 0.0
2014-Nov-14 10:34N 47°33' W 122°21'0 0.0
2014-Nov-14 10:33N 47°33' W 122°21'0 0.0
2014-Nov-14 09:34N 47°33' W 122°21'0 0.0
2014-Nov-14 09:05N 47°33' W 122°21'0 0.0
2014-Nov-14 08:34N 47°33' W 122°21'0 0.0
2014-Nov-14 08:19N 47°33' W 122°21'0 0.0
2014-Nov-14 07:34N 47°33' W 122°21'0 0.0
2014-Nov-14 06:46N 47°33' W 122°21'0 0.0
2014-Nov-14 06:34N 47°33' W 122°21'0 0.0
2014-Nov-14 06:31N 47°33' W 122°21'0 0.0
2014-Nov-14 05:34N 47°33' W 122°21'0 0.0
2014-Nov-14 05:31N 47°33' W 122°21'0 0.0
2014-Nov-14 04:34N 47°33' W 122°21'0 0.0
2014-Nov-14 04:31N 47°33' W 122°21'0 0.0
2014-Nov-14 03:34N 47°33' W 122°21'0 0.0
2014-Nov-14 03:31N 47°33' W 122°21'0 0.0
2014-Nov-14 02:34N 47°33' W 122°21'0 0.0
2014-Nov-14 02:31N 47°33' W 122°21'0 0.1
2014-Nov-14 01:34N 47°33' W 122°21'0 1.0
2014-Nov-14 01:31N 47°33' W 122°21'3 3.4
2014-Nov-14 00:33N 47°36' W 122°24'0 6.2
2014-Nov-14 00:30N 47°35' W 122°24'7 7.2
2014-Nov-13 23:33N 47°30' W 122°30'1 7.1
2014-Nov-13 23:25N 47°29' W 122°30'7 7.8
2014-Nov-13 22:34N 47°22' W 122°32'8 8.4
2014-Nov-13 21:34N 47°14' W 122°35'9 7.1
2014-Nov-13 20:19N 47°10' W 122°46'  

Dump ship's entire track history